createdAt,value
2022-11-15T00:01:11.245Z,9.27
2022-11-15T00:03:38.023Z,9.30
2022-11-15T00:06:05.853Z,9.25
2022-11-15T00:08:33.936Z,10.43
2022-11-15T00:11:02.515Z,9.50
2022-11-15T00:13:30.713Z,10.50
2022-11-15T00:16:00.142Z,11.20
2022-11-15T00:18:28.292Z,10.52
2022-11-15T00:20:56.718Z,10.77
2022-11-15T00:23:24.094Z,11.02
2022-11-15T00:25:59.161Z,10.50
2022-11-15T00:28:26.701Z,10.48
2022-11-15T00:30:54.303Z,10.15
2022-11-15T00:33:21.143Z,9.43
2022-11-15T00:35:48.009Z,9.80
2022-11-15T00:38:15.439Z,11.40
2022-11-15T00:40:42.778Z,10.57
2022-11-15T00:43:09.837Z,10.85
2022-11-15T00:45:37.103Z,9.65
2022-11-15T00:48:04.233Z,10.95
2022-11-15T00:50:31.456Z,9.65
2022-11-15T00:52:58.421Z,10.63
2022-11-15T00:55:26.588Z,10.75
2022-11-15T00:57:54.161Z,9.93
2022-11-15T01:00:21.920Z,9.77
2022-11-15T01:02:50.026Z,9.88
2022-11-15T01:05:17.553Z,10.27
2022-11-15T01:07:45.251Z,9.68
2022-11-15T01:10:12.780Z,9.52
2022-11-15T01:12:40.290Z,9.02
2022-11-15T01:15:08.789Z,8.77
2022-11-15T01:17:36.042Z,10.15
2022-11-15T01:20:07.425Z,9.40
2022-11-15T01:22:34.728Z,10.75
2022-11-15T01:25:02.073Z,10.18
2022-11-15T01:27:29.455Z,11.82
2022-11-15T01:29:57.553Z,12.05
2022-11-15T01:32:25.593Z,10.25
2022-11-15T01:34:53.314Z,12.23
2022-11-15T01:37:21.047Z,10.50
2022-11-15T01:39:48.560Z,12.55
2022-11-15T01:42:15.745Z,12.32
2022-11-15T01:44:56.122Z,13.07
2022-11-15T01:47:31.668Z,11.68
2022-11-15T01:49:59.411Z,11.40
2022-11-15T01:52:29.707Z,11.30
2022-11-15T01:55:10.499Z,11.52
2022-11-15T01:57:38.434Z,12.45
2022-11-15T02:00:06.889Z,10.95
2022-11-15T02:02:35.224Z,11.85
2022-11-15T02:05:02.118Z,10.25
2022-11-15T02:07:30.763Z,9.38
2022-11-15T02:10:02.688Z,10.52
2022-11-15T02:12:31.989Z,10.90
2022-11-15T02:14:59.438Z,10.50
2022-11-15T02:17:26.605Z,10.23
2022-11-15T02:20:02.065Z,11.43
2022-11-15T02:22:58.789Z,10.55
2022-11-15T02:25:39.489Z,10.60
2022-11-15T02:28:24.953Z,9.70
2022-11-15T02:31:00.707Z,10.10
2022-11-15T02:33:33.674Z,10.20
2022-11-15T02:36:10.756Z,10.00
2022-11-15T02:38:52.201Z,10.45
2022-11-15T02:41:27.894Z,10.38
2022-11-15T02:44:04.543Z,9.38
2022-11-15T02:47:04.150Z,9.45
2022-11-15T02:49:35.448Z,10.00
2022-11-15T02:52:02.543Z,9.75
2022-11-15T02:54:33.765Z,11.05
2022-11-15T02:57:06.501Z,10.30
2022-11-15T03:00:02.171Z,9.30
2022-11-15T03:02:47.578Z,10.60
2022-11-15T03:05:33.067Z,10.00
2022-11-15T03:08:29.389Z,9.00
2022-11-15T03:11:14.568Z,8.75
2022-11-15T03:14:10.717Z,7.65
2022-11-15T03:16:59.400Z,8.60
2022-11-15T03:19:44.909Z,7.38
2022-11-15T03:22:16.711Z,8.05
2022-11-15T03:24:46.390Z,7.82
2022-11-15T03:27:18.477Z,7.18
2022-11-15T03:29:51.257Z,8.05
2022-11-15T03:32:25.533Z,7.65
2022-11-15T03:35:10.129Z,7.75
2022-11-15T03:37:43.608Z,7.70
2022-11-15T03:40:11.625Z,7.68
2022-11-15T03:42:47.741Z,8.68
2022-11-15T03:45:17.464Z,7.45
2022-11-15T03:47:55.343Z,7.20
2022-11-15T03:50:23.896Z,7.53
2022-11-15T03:52:51.866Z,7.68
2022-11-15T03:55:21.232Z,8.18
2022-11-15T03:57:51.839Z,8.40
2022-11-15T04:00:18.807Z,8.68
2022-11-15T04:02:45.740Z,8.23
2022-11-15T04:05:12.828Z,7.72
2022-11-15T04:07:39.613Z,8.73
2022-11-15T04:10:07.524Z,8.95
2022-11-15T04:12:36.588Z,9.00
2022-11-15T04:15:09.054Z,7.97
2022-11-15T04:17:45.845Z,9.05
2022-11-15T04:20:39.221Z,10.15
2022-11-15T04:23:30.295Z,9.18
2022-11-15T04:26:01.956Z,10.13
2022-11-15T04:28:28.734Z,9.70
2022-11-15T04:30:55.645Z,9.60
2022-11-15T04:33:23.530Z,9.38
2022-11-15T04:36:09.452Z,9.18
2022-11-15T04:38:37.317Z,9.48
2022-11-15T04:41:04.570Z,9.43
2022-11-15T04:43:31.879Z,7.78
2022-11-15T04:45:59.472Z,9.38
2022-11-15T04:48:26.749Z,9.10
2022-11-15T04:50:53.945Z,9.88
2022-11-15T04:53:21.136Z,9.38
2022-11-15T04:55:48.158Z,7.97
2022-11-15T04:58:15.336Z,8.35
2022-11-15T05:00:42.263Z,18.27
2022-11-15T05:03:29.179Z,24.35
2022-11-15T05:05:56.649Z,10.38
2022-11-15T05:08:23.396Z,9.18
2022-11-15T05:10:50.602Z,8.90
2022-11-15T05:13:17.820Z,8.48
2022-11-15T05:15:44.798Z,7.53
2022-11-15T05:18:12.749Z,11.63
2022-11-15T05:20:39.994Z,8.68
2022-11-15T05:23:07.156Z,8.80
2022-11-15T05:25:34.380Z,9.13
2022-11-15T05:28:04.299Z,9.52
2022-11-15T05:30:31.272Z,9.15
2022-11-15T05:32:58.380Z,9.23
2022-11-15T05:35:38.108Z,9.43
2022-11-15T05:38:05.269Z,9.38
2022-11-15T05:40:32.991Z,9.68
2022-11-15T05:43:02.996Z,9.43
2022-11-15T05:45:30.443Z,9.73
2022-11-15T05:48:00.411Z,9.30
2022-11-15T05:50:28.462Z,9.27
2022-11-15T05:52:56.944Z,9.75
2022-11-15T05:55:26.980Z,9.25
2022-11-15T05:57:53.993Z,9.85
2022-11-15T06:00:20.929Z,10.18
2022-11-15T06:02:47.673Z,9.65
2022-11-15T06:05:14.496Z,9.85
2022-11-15T06:07:41.740Z,9.40
2022-11-15T06:10:09.212Z,9.40
2022-11-15T06:12:36.128Z,10.30
2022-11-15T06:15:02.932Z,8.50
2022-11-15T06:17:30.220Z,9.65
2022-11-15T06:19:57.490Z,9.73
2022-11-15T06:22:24.769Z,10.35
2022-11-15T06:24:51.533Z,9.55
2022-11-15T06:27:18.347Z,10.52
2022-11-15T06:29:45.192Z,9.88
2022-11-15T06:32:11.986Z,9.95
2022-11-15T06:34:38.772Z,9.60
2022-11-15T06:37:06.007Z,9.82
2022-11-15T06:39:33.140Z,11.02
2022-11-15T06:41:59.888Z,10.05
2022-11-15T06:44:26.711Z,11.15
2022-11-15T06:46:53.902Z,10.60
2022-11-15T06:49:20.715Z,10.68
2022-11-15T06:51:47.480Z,12.85
2022-11-15T06:54:14.295Z,10.95
2022-11-15T06:56:41.554Z,12.68
2022-11-15T06:59:08.394Z,9.68
2022-11-15T07:01:35.687Z,10.48
2022-11-15T07:04:02.527Z,10.52
2022-11-15T07:06:29.749Z,12.02
2022-11-15T07:08:56.557Z,13.38
2022-11-15T07:11:23.351Z,12.05
2022-11-15T07:13:50.133Z,10.93
2022-11-15T07:16:16.995Z,17.55
2022-11-15T07:18:44.910Z,15.43
2022-11-15T07:21:12.456Z,12.75
2022-11-15T07:23:40.249Z,18.02
2022-11-15T07:26:08.955Z,15.48
2022-11-15T07:28:36.447Z,14.20
2022-11-15T07:31:05.764Z,15.27
2022-11-15T07:33:33.249Z,12.32
2022-11-15T07:36:02.652Z,13.45
2022-11-15T07:38:29.956Z,18.08
2022-11-15T07:41:02.475Z,16.60
2022-11-15T07:43:31.025Z,16.67
2022-11-15T07:45:59.516Z,20.70
2022-11-15T07:48:32.162Z,19.85
2022-11-15T07:51:14.659Z,19.67
2022-11-15T07:53:43.418Z,15.80
2022-11-15T08:31:23.358Z,20.30
2022-11-15T08:33:52.754Z,22.75
2022-11-15T08:39:11.078Z,30.92
2022-11-15T08:41:39.572Z,26.65
2022-11-15T08:46:42.392Z,24.27
2022-11-15T08:56:56.703Z,25.40
2022-11-15T08:59:24.320Z,24.48
2022-11-15T09:01:51.645Z,28.83
2022-11-15T09:04:19.307Z,26.20
2022-11-15T09:06:46.571Z,27.48
2022-11-15T09:12:02.539Z,33.28
2022-11-15T09:17:46.439Z,31.70
2022-11-15T09:20:14.278Z,27.80
2022-11-15T09:22:50.668Z,27.83
2022-11-15T09:25:20.931Z,33.25
2022-11-15T09:49:32.520Z,14.50
2022-11-15T09:52:00.217Z,14.60
2022-11-15T09:54:56.414Z,16.33
2022-11-15T09:57:34.674Z,15.43
2022-11-15T10:08:38.806Z,28.00
2022-11-15T10:11:40.426Z,25.42
2022-11-15T10:14:25.054Z,24.33
2022-11-15T10:17:19.419Z,24.98
2022-11-15T10:20:16.020Z,23.02
2022-11-15T10:22:49.557Z,20.75
2022-11-15T10:25:29.387Z,23.50
2022-11-15T10:28:11.509Z,22.60
2022-11-15T10:30:42.375Z,23.05
2022-11-15T10:33:27.618Z,21.83
2022-11-15T10:36:22.773Z,22.92
2022-11-15T10:38:53.849Z,22.65
2022-11-15T10:41:27.523Z,23.45
2022-11-15T10:44:13.047Z,22.70
2022-11-15T10:46:47.729Z,23.75
2022-11-15T10:49:31.128Z,23.70
2022-11-15T10:51:59.923Z,22.77
2022-11-15T10:54:34.454Z,23.13
2022-11-15T10:57:08.529Z,23.90
2022-11-15T10:59:39.400Z,23.60
2022-11-15T11:02:30.719Z,22.70
2022-11-15T11:04:58.654Z,23.50
2022-11-15T11:07:32.444Z,21.67
2022-11-15T11:13:26.776Z,19.95
2022-11-15T11:15:56.370Z,19.20
2022-11-15T11:18:34.327Z,19.45
2022-11-15T11:21:20.255Z,22.42
2022-11-15T11:23:58.749Z,20.48
2022-11-15T11:26:39.536Z,21.42
2022-11-15T11:29:44.107Z,23.80
2022-11-15T11:32:35.497Z,23.25
2022-11-15T11:35:31.733Z,23.35
2022-11-15T11:38:01.953Z,25.13
2022-11-15T11:40:31.408Z,25.33
2022-11-15T11:43:21.623Z,26.00
2022-11-15T11:46:27.982Z,26.20
2022-11-15T11:49:09.119Z,25.25
2022-11-15T11:51:44.632Z,25.17
2022-11-15T11:54:18.616Z,23.45
2022-11-15T11:56:46.559Z,21.05
2022-11-15T11:59:42.409Z,22.38
2022-11-15T12:02:27.730Z,21.15
2022-11-15T12:05:04.074Z,19.73
2022-11-15T12:07:35.065Z,19.13
2022-11-15T12:10:17.365Z,17.30
2022-11-15T12:13:25.455Z,16.98
2022-11-15T12:16:10.647Z,15.90
2022-11-15T12:18:38.585Z,15.55
2022-11-15T12:21:23.987Z,16.77
2022-11-15T12:24:01.134Z,15.00
2022-11-15T12:26:34.170Z,15.23
2022-11-15T12:29:08.625Z,16.08
2022-11-15T12:31:36.258Z,14.52
2022-11-15T12:34:21.455Z,12.55
2022-11-15T12:36:50.050Z,13.10
2022-11-15T12:39:17.946Z,14.23
2022-11-15T12:41:56.570Z,13.10
2022-11-15T12:44:32.607Z,13.88
2022-11-15T12:46:59.403Z,13.63
2022-11-15T12:49:29.228Z,12.50
2022-11-15T12:51:58.709Z,13.13
2022-11-15T12:54:25.618Z,13.32
2022-11-15T12:57:04.466Z,14.23
2022-11-15T13:00:02.752Z,14.00
2022-11-15T13:02:37.072Z,14.95
2022-11-15T13:05:36.880Z,16.98
2022-11-15T13:08:04.116Z,22.13
2022-11-15T13:10:36.257Z,37.72
2022-11-15T13:13:10.602Z,29.33
2022-11-15T13:15:42.467Z,23.25
2022-11-15T13:18:25.017Z,24.60
2022-11-15T13:20:51.841Z,29.77
2022-11-15T13:23:18.664Z,34.58
2022-11-15T13:25:59.812Z,21.45
2022-11-15T13:28:35.022Z,23.70
2022-11-15T13:31:29.275Z,44.28
2022-11-15T13:34:00.836Z,21.30
2022-11-15T13:36:36.387Z,19.88
2022-11-15T13:39:24.120Z,20.02
2022-11-15T13:41:52.858Z,23.45
2022-11-15T13:44:28.237Z,32.63
2022-11-15T13:47:15.191Z,28.30
2022-11-15T13:49:42.652Z,27.92
2022-11-15T13:52:15.130Z,26.42
2022-11-15T13:55:12.226Z,30.98
2022-11-15T13:57:47.399Z,32.28
2022-11-15T14:00:44.348Z,33.50
2022-11-15T14:03:25.645Z,26.50
2022-11-15T14:06:13.215Z,27.30
2022-11-15T14:08:58.772Z,24.70
2022-11-15T14:11:25.717Z,23.60
2022-11-15T14:14:10.495Z,34.10
2022-11-15T14:16:38.972Z,37.00
2022-11-15T14:19:07.997Z,31.35
2022-11-15T14:21:34.915Z,32.20
2022-11-15T14:24:22.419Z,34.60
2022-11-15T14:26:49.591Z,39.60
2022-11-15T14:29:27.223Z,51.17
2022-11-15T14:34:33.596Z,45.05
2022-11-15T14:37:00.664Z,48.28
2022-11-15T14:39:27.918Z,42.40
2022-11-15T14:41:54.996Z,44.97
2022-11-15T14:44:22.866Z,44.63
2022-11-15T14:46:49.886Z,47.63
2022-11-15T14:49:17.380Z,41.22
2022-11-15T14:51:44.330Z,43.20
2022-11-15T14:54:12.274Z,40.15
2022-11-15T14:56:39.267Z,40.70
2022-11-15T14:59:06.749Z,47.10
2022-11-15T15:01:34.326Z,45.78
2022-11-15T15:04:01.742Z,38.35
2022-11-15T15:06:28.994Z,50.22
2022-11-15T15:08:56.053Z,39.70
2022-11-15T15:11:26.309Z,51.90
2022-11-15T15:16:29.350Z,38.00
2022-11-15T15:19:00.210Z,40.15
2022-11-15T15:42:07.759Z,53.60
2022-11-15T15:45:21.245Z,49.15
2022-11-15T15:47:53.282Z,48.72
2022-11-15T15:50:29.335Z,48.10
2022-11-15T15:52:58.578Z,63.13
2022-11-15T15:55:26.474Z,54.75
2022-11-15T15:57:53.425Z,53.47
2022-11-15T16:00:21.316Z,53.78
2022-11-15T16:02:48.716Z,43.97
2022-11-15T16:05:15.699Z,64.05
2022-11-15T16:07:44.334Z,41.72
2022-11-15T16:10:35.582Z,51.28
2022-11-15T16:13:05.499Z,60.88
2022-11-15T16:15:33.203Z,66.40
2022-11-15T16:18:01.731Z,57.10
2022-11-15T16:20:40.236Z,47.47
2022-11-15T16:23:09.961Z,50.30
2022-11-15T16:25:49.499Z,37.70
2022-11-15T16:28:29.607Z,48.08
2022-11-15T16:31:06.937Z,51.05
2022-11-15T16:33:34.269Z,44.42
2022-11-15T16:36:02.135Z,46.60
2022-11-15T16:38:28.926Z,48.92
2022-11-15T16:40:55.726Z,50.17
2022-11-15T16:43:48.969Z,79.65
2022-11-15T16:46:30.025Z,56.28
2022-11-15T16:49:04.680Z,74.05
2022-11-15T16:51:32.269Z,82.65
2022-11-15T16:54:08.961Z,104.03
2022-11-15T16:56:42.424Z,112.05
2022-11-15T16:59:16.474Z,79.65
2022-11-15T17:01:54.070Z,175.70
2022-11-15T17:04:22.820Z,134.30
2022-11-15T17:06:50.474Z,151.45
2022-11-15T17:09:19.963Z,100.93
2022-11-15T17:11:47.438Z,104.30
2022-11-15T17:22:01.168Z,89.57
2022-11-15T17:24:28.731Z,141.57
2022-11-15T17:26:56.099Z,141.20
2022-11-15T17:29:23.417Z,145.93
2022-11-15T17:34:26.520Z,105.50
2022-11-15T17:36:54.287Z,124.78
2022-11-15T17:39:23.764Z,116.95
2022-11-15T17:41:51.268Z,83.35
2022-11-15T17:44:18.589Z,81.95
2022-11-15T17:46:45.865Z,79.53
2022-11-15T17:49:13.100Z,59.67
2022-11-15T17:51:41.870Z,78.32
2022-11-15T17:54:15.056Z,73.25
2022-11-15T17:56:43.231Z,88.40
2022-11-15T17:59:14.856Z,65.10
2022-11-15T18:01:44.774Z,84.97
2022-11-15T18:04:15.060Z,68.88
2022-11-15T18:06:43.163Z,71.50
2022-11-15T18:09:10.776Z,71.72
2022-11-15T18:11:41.619Z,77.00
2022-11-15T18:14:14.413Z,82.00
2022-11-15T18:16:42.808Z,91.22
2022-11-15T18:19:13.457Z,98.30
2022-11-15T18:21:57.800Z,77.00
2022-11-15T18:24:30.362Z,87.32
2022-11-15T18:27:00.967Z,73.50
2022-11-15T18:29:28.693Z,74.20
2022-11-15T18:31:57.048Z,86.13
2022-11-15T18:34:26.274Z,74.00
2022-11-15T18:36:54.023Z,73.40
2022-11-15T18:39:21.473Z,70.75
2022-11-15T18:41:49.599Z,75.22
2022-11-15T19:05:09.298Z,53.22
2022-11-15T22:03:02.863Z,65.70
2022-11-15T22:05:30.191Z,64.90
2022-11-15T22:07:56.974Z,65.30
2022-11-15T22:10:23.831Z,63.85
2022-11-15T22:12:50.541Z,61.55
2022-11-15T22:15:17.712Z,65.22
2022-11-15T22:17:59.751Z,62.90
2022-11-15T22:20:44.182Z,45.85
2022-11-15T22:23:12.214Z,52.50
2022-11-15T22:25:39.156Z,59.30
2022-11-15T22:28:06.002Z,60.47
2022-11-15T22:30:33.174Z,58.80
2022-11-15T22:32:59.943Z,55.65
2022-11-15T22:35:26.746Z,61.45
2022-11-15T22:37:53.569Z,53.22
2022-11-15T22:40:20.303Z,50.92
2022-11-15T22:42:47.058Z,55.15
2022-11-15T22:45:13.839Z,54.67
2022-11-15T22:47:40.731Z,56.92
2022-11-15T22:50:10.298Z,47.03
2022-11-15T22:52:37.143Z,43.70
2022-11-15T22:55:04.415Z,47.38
2022-11-15T22:57:34.280Z,37.83
2022-11-15T23:00:01.052Z,49.45
2022-11-15T23:02:27.824Z,46.63
2022-11-15T23:04:54.712Z,70.65
2022-11-15T23:07:21.905Z,72.97
2022-11-15T23:09:52.186Z,66.05
2022-11-15T23:12:37.894Z,53.67
2022-11-15T23:15:05.129Z,55.03
2022-11-15T23:17:32.484Z,52.60
2022-11-15T23:20:07.497Z,66.32
2022-11-15T23:22:49.457Z,55.70
2022-11-15T23:25:16.253Z,59.42
2022-11-15T23:27:47.450Z,80.57
2022-11-15T23:30:32.935Z,82.55
2022-11-15T23:33:18.281Z,68.22
2022-11-15T23:35:54.508Z,68.18
2022-11-15T23:38:21.365Z,74.50
2022-11-15T23:40:52.760Z,68.13
2022-11-15T23:43:20.039Z,74.57
2022-11-15T23:45:46.831Z,77.60
2022-11-15T23:48:13.659Z,75.07
2022-11-15T23:50:40.494Z,59.22
2022-11-15T23:53:07.262Z,61.15
2022-11-15T23:55:34.420Z,62.65
2022-11-15T23:58:01.188Z,62.05
